sensor_id;sensor_type;location;lat;lon;timestamp;P1;durP1;ratioP1;P2;durP2;ratioP2
1400;SDS011;46518;48.842;8.926;2022-12-18T11:30:33;35.20;;;17.58;;
1400;SDS011;46518;48.842;8.926;2022-12-18T11:33:28;38.35;;;19.27;;
1400;SDS011;46518;48.842;8.926;2022-12-18T11:36:36;30.05;;;17.50;;
1400;SDS011;46518;48.842;8.926;2022-12-18T11:39:30;41.67;;;20.83;;
1400;SDS011;46518;48.842;8.926;2022-12-18T19:29:06;48.33;;;24.75;;
1400;SDS011;46518;48.842;8.926;2022-12-18T19:32:13;48.55;;;27.73;;
1400;SDS011;46518;48.842;8.926;2022-12-18T19:35:04;51.78;;;26.48;;
1400;SDS011;46518;48.842;8.926;2022-12-18T19:38:10;46.30;;;26.50;;
1400;SDS011;46518;48.842;8.926;2022-12-18T19:41:27;47.15;;;26.02;;
1400;SDS011;46518;48.842;8.926;2022-12-18T19:44:33;43.90;;;26.27;;
1400;SDS011;46518;48.842;8.926;2022-12-18T19:47:33;42.20;;;23.65;;
1400;SDS011;46518;48.842;8.926;2022-12-18T19:50:13;47.33;;;23.55;;
1400;SDS011;46518;48.842;8.926;2022-12-18T19:53:12;41.00;;;24.25;;
1400;SDS011;46518;48.842;8.926;2022-12-18T19:55:53;48.97;;;24.20;;
1400;SDS011;46518;48.842;8.926;2022-12-18T19:58:43;48.47;;;25.00;;
1400;SDS011;46518;48.842;8.926;2022-12-18T20:01:34;49.97;;;27.05;;
1400;SDS011;46518;48.842;8.926;2022-12-18T20:04:13;46.50;;;25.42;;
1400;SDS011;46518;48.842;8.926;2022-12-18T20:06:55;47.83;;;24.67;;
1400;SDS011;46518;48.842;8.926;2022-12-18T20:09:39;48.30;;;27.08;;
1400;SDS011;46518;48.842;8.926;2022-12-18T20:12:40;43.78;;;24.10;;
1400;SDS011;46518;48.842;8.926;2022-12-18T20:18:46;47.60;;;25.85;;
1400;SDS011;46518;48.842;8.926;2022-12-18T20:21:36;44.78;;;23.42;;
1400;SDS011;46518;48.842;8.926;2022-12-18T20:24:28;45.45;;;24.65;;
1400;SDS011;46518;48.842;8.926;2022-12-18T20:27:18;47.60;;;28.00;;
1400;SDS011;46518;48.842;8.926;2022-12-18T20:30:24;44.33;;;25.48;;
1400;SDS011;46518;48.842;8.926;2022-12-18T20:33:10;52.95;;;26.52;;
1400;SDS011;46518;48.842;8.926;2022-12-18T20:35:49;45.75;;;22.65;;
1400;SDS011;46518;48.842;8.926;2022-12-18T20:38:40;47.75;;;24.10;;
1400;SDS011;46518;48.842;8.926;2022-12-18T20:41:29;42.03;;;24.23;;
1400;SDS011;46518;48.842;8.926;2022-12-18T20:44:11;48.35;;;23.10;;
1400;SDS011;46518;48.842;8.926;2022-12-18T20:46:56;45.05;;;23.38;;
1400;SDS011;46518;48.842;8.926;2022-12-18T20:50:04;42.35;;;22.35;;
1400;SDS011;46518;48.842;8.926;2022-12-18T20:52:59;44.60;;;23.52;;
1400;SDS011;46518;48.842;8.926;2022-12-18T20:55:54;38.83;;;22.27;;
1400;SDS011;46518;48.842;8.926;2022-12-18T20:58:54;44.28;;;25.17;;
1400;SDS011;46518;48.842;8.926;2022-12-18T21:02:01;47.05;;;25.05;;
1400;SDS011;46518;48.842;8.926;2022-12-18T21:05:16;40.30;;;23.40;;
1400;SDS011;46518;48.842;8.926;2022-12-18T21:08:08;42.05;;;24.42;;
1400;SDS011;46518;48.842;8.926;2022-12-18T21:10:53;44.88;;;24.70;;
1400;SDS011;46518;48.842;8.926;2022-12-18T21:13:33;40.33;;;24.85;;
1400;SDS011;46518;48.842;8.926;2022-12-18T21:16:22;42.65;;;24.50;;
1400;SDS011;46518;48.842;8.926;2022-12-18T21:19:25;48.05;;;26.63;;
1400;SDS011;46518;48.842;8.926;2022-12-18T21:22:25;47.95;;;25.30;;
1400;SDS011;46518;48.842;8.926;2022-12-18T21:25:07;43.50;;;26.08;;
1400;SDS011;46518;48.842;8.926;2022-12-18T21:28:04;49.40;;;25.08;;
1400;SDS011;46518;48.842;8.926;2022-12-18T21:31:10;46.17;;;26.65;;
1400;SDS011;46518;48.842;8.926;2022-12-18T21:34:09;45.33;;;24.10;;
1400;SDS011;46518;48.842;8.926;2022-12-18T21:37:04;47.55;;;24.42;;
1400;SDS011;46518;48.842;8.926;2022-12-18T21:47:08;41.17;;;20.85;;
1400;SDS011;46518;48.842;8.926;2022-12-18T21:49:50;46.17;;;23.00;;
1400;SDS011;46518;48.842;8.926;2022-12-18T21:52:47;39.58;;;23.10;;
1400;SDS011;46518;48.842;8.926;2022-12-18T21:55:46;39.17;;;20.77;;
1400;SDS011;46518;48.842;8.926;2022-12-18T21:58:47;36.38;;;22.95;;
1400;SDS011;46518;48.842;8.926;2022-12-18T22:01:26;39.72;;;22.63;;
1400;SDS011;46518;48.842;8.926;2022-12-18T22:04:22;41.70;;;23.30;;
1400;SDS011;46518;48.842;8.926;2022-12-18T22:07:11;42.15;;;22.30;;
1400;SDS011;46518;48.842;8.926;2022-12-18T22:10:08;39.38;;;22.42;;
1400;SDS011;46518;48.842;8.926;2022-12-18T22:13:09;40.42;;;21.02;;
1400;SDS011;46518;48.842;8.926;2022-12-18T22:15:57;46.53;;;22.27;;
1400;SDS011;46518;48.842;8.926;2022-12-18T22:19:20;40.75;;;21.95;;
1400;SDS011;46518;48.842;8.926;2022-12-18T22:22:21;38.33;;;22.95;;
1400;SDS011;46518;48.842;8.926;2022-12-18T22:25:24;38.35;;;23.17;;
1400;SDS011;46518;48.842;8.926;2022-12-18T22:28:30;39.92;;;22.73;;
1400;SDS011;46518;48.842;8.926;2022-12-18T22:31:24;35.72;;;23.02;;
1400;SDS011;46518;48.842;8.926;2022-12-18T22:37:39;43.95;;;22.38;;
1400;SDS011;46518;48.842;8.926;2022-12-18T22:40:36;41.03;;;22.40;;
1400;SDS011;46518;48.842;8.926;2022-12-18T22:43:29;40.97;;;23.17;;
1400;SDS011;46518;48.842;8.926;2022-12-18T22:46:29;48.55;;;26.83;;
1400;SDS011;46518;48.842;8.926;2022-12-18T22:52:56;49.08;;;27.23;;
1400;SDS011;46518;48.842;8.926;2022-12-18T22:55:59;46.50;;;25.95;;
1400;SDS011;46518;48.842;8.926;2022-12-18T22:59:06;44.95;;;25.23;;
1400;SDS011;46518;48.842;8.926;2022-12-18T23:02:02;43.10;;;25.55;;
1400;SDS011;46518;48.842;8.926;2022-12-18T23:08:33;47.28;;;24.48;;
1400;SDS011;46518;48.842;8.926;2022-12-18T23:11:14;47.45;;;23.73;;
1400;SDS011;46518;48.842;8.926;2022-12-18T23:14:09;41.90;;;24.42;;
1400;SDS011;46518;48.842;8.926;2022-12-18T23:17:07;38.80;;;23.13;;
